Time;durP1;ratioP1;P1;durP2;ratioP2;P2;SDS_P1;SDS_P2;PMS_P1;PMS_P2;Temp;Humidity;BMP_temperature;BMP_pressure;BME280_temperature;BME280_humidity;BME280_pressure;Samples;Min_cycle;Max_cycle;Signal;HPM_P1;HPM_P2
2022/04/13 00:02:15;;;;;;;21.05;10.05;;;;;;;8.47;49.44;92783.53;6220884;23;20016;-93
2022/04/13 00:05:04;;;;;;;20.20;9.30;;;;;;;8.34;49.92;92766.56;6221663;23;20399;-92
2022/04/13 00:08:06;;;;;;;19.67;9.23;;;;;;;8.66;49.74;92814.25;6198358;23;20027;-93
2022/04/13 00:10:39;;;;;;;24.85;9.55;;;;;;;8.44;50.00;92776.22;6200951;23;20012;-92
2022/04/13 00:13:18;;;;;;;21.80;10.23;;;;;;;8.20;49.74;92739.47;6222017;23;20012;-93
2022/04/13 00:16:03;;;;;;;18.83;10.35;;;;;;;8.34;49.75;92757.97;6199213;23;20351;-93
2022/04/13 00:18:42;;;;;;;22.77;9.93;;;;;;;8.68;50.84;92812.16;6200373;23;20511;-93
2022/04/13 00:21:43;;;;;;;20.80;9.13;;;;;;;8.61;50.67;92801.22;6199100;23;20012;-93
2022/04/13 00:24:51;;;;;;;16.92;9.00;;;;;;;8.60;50.62;92812.69;6201854;23;20032;-94
2022/04/13 00:27:28;;;;;;;21.95;9.75;;;;;;;8.51;50.92;92800.22;6201766;23;20024;-92
2022/04/13 00:30:10;;;;;;;19.55;9.55;;;;;;;8.06;50.95;92734.03;6224274;23;20068;-92
2022/04/13 00:32:43;;;;;;;21.08;9.98;;;;;;;8.12;50.56;92732.19;6196680;23;20426;-93
2022/04/13 00:35:18;;;;;;;18.92;9.68;;;;;;;8.13;50.72;92744.19;6172299;23;20044;-93
2022/04/13 00:38:39;;;;;;;;;;;;;;;;;;;;;
2022/04/13 00:41:34;;;;;;;;;;;;;;;;;;;;;
2022/04/13 00:44:15;;;;;;;17.65;9.60;;;;;;;8.22;51.67;92758.25;6248066;23;20095;-93
2022/04/13 00:46:47;;;;;;;17.13;9.88;;;;;;;8.05;51.47;92732.47;6170306;23;20020;-92
2022/04/13 00:49:50;;;;;;;17.50;9.93;;;;;;;8.01;51.30;92728.03;6197631;23;20225;-93
2022/04/13 00:56:01;;;;;;;22.33;10.10;;;;;;;7.94;51.09;92720.50;6247697;23;20086;-93
2022/04/13 00:59:07;;;;;;;22.80;9.45;;;;;;;7.94;51.46;92720.50;6196280;23;20339;-93
2022/04/13 01:02:03;;;;;;;26.58;10.57;;;;;;;8.10;52.28;92737.66;6222986;23;20090;-93
2022/04/13 01:05:07;;;;;;;18.48;10.20;;;;;;;7.98;52.40;92723.38;6223386;23;20083;-92
2022/04/13 01:07:46;;;;;;;17.77;9.77;;;;;;;7.85;51.97;92711.66;6220938;23;20016;-93
2022/04/13 01:10:55;;;;;;;20.10;10.15;;;;;;;8.02;51.98;92738.22;6176277;23;20494;-93
2022/04/13 01:13:54;;;;;;;20.15;10.13;;;;;;;7.87;52.04;92722.59;6224731;23;20355;-93
2022/04/13 01:16:42;;;;;;;;;;;;;;;;;;;;;
2022/04/13 01:19:33;;;;;;;22.75;10.60;;;;;;;7.87;51.91;92720.00;6224801;23;20095;-92
2022/04/13 01:22:40;;;;;;;18.83;10.40;;;;;;;7.80;51.84;92709.06;6196405;23;20023;-93
2022/04/13 01:25:28;;;;;;;;;;;;;;;;;;;;;
2022/04/13 01:28:07;;;;;;;19.60;10.55;;;;;;;7.71;51.79;92708.81;6223176;23;20024;-94
2022/04/13 01:31:03;;;;;;;;;;;;;;;;;;;;;
2022/04/13 01:33:52;;;;;;;26.17;9.88;;;;;;;7.69;52.28;92709.06;6199465;23;20111;-92
2022/04/13 01:36:46;;;;;;;20.77;10.00;;;;;;;7.86;52.75;92739.28;6197617;23;20098;-92
2022/04/13 01:39:27;;;;;;;21.08;10.13;;;;;;;7.68;52.44;92712.72;6221362;23;20009;-93
2022/04/13 01:42:22;;;;;;;24.23;11.10;;;;;;;7.65;52.56;92715.81;6199206;23;20019;-92
2022/04/13 01:45:05;;;;;;;25.08;10.57;;;;;;;7.62;52.14;92703.34;6224700;23;20031;-92
2022/04/13 01:47:41;;;;;;;23.60;11.50;;;;;;;7.63;52.44;92712.72;6195661;23;20074;-94
2022/04/13 01:50:36;;;;;;;21.50;10.82;;;;;;;7.58;52.25;92706.72;6198373;23;20039;-92
2022/04/13 01:53:10;;;;;;;20.90;10.65;;;;;;;7.83;52.58;92752.81;6196326;23;20043;-92
2022/04/13 01:55:38;;;;;;;21.23;10.68;;;;;;;7.55;52.70;92708.03;6195246;23;20050;-92
2022/04/13 01:58:39;;;;;;;19.55;10.85;;;;;;;7.50;52.63;92705.44;6222704;23;20008;-94
2022/04/13 02:01:13;;;;;;;22.63;10.48;;;;;;;7.63;53.15;92727.56;6195956;23;20028;-94
2022/04/13 02:04:14;;;;;;;21.17;10.05;;;;;;;7.51;52.94;92712.97;6221939;23;20083;-93
2022/04/13 02:07:16;;;;;;;17.92;9.68;;;;;;;7.58;52.76;92727.56;6224202;23;20060;-94
2022/04/13 02:13:12;;;;;;;25.77;10.57;;;;;;;7.52;52.94;92724.19;6246759;23;20096;-94
2022/04/13 02:15:53;;;;;;;;;;;;;;;;;;;;;
2022/04/13 02:18:32;;;;;;;22.80;10.55;;;;;;;7.45;53.14;92719.25;6225043;23;20084;-93
2022/04/13 02:21:03;;;;;;;22.92;10.70;;;;;;;7.22;53.08;92689.28;6195551;23;20016;-94
2022/04/13 02:26:57;;;;;;;23.92;10.90;;;;;;;7.64;52.94;92763.00;6213428;23;20091;-92
2022/04/13 02:29:31;;;;;;;22.45;10.90;;;;;;;7.26;53.21;92705.94;6147264;23;20662;-93
2022/04/13 02:32:07;;;;;;;21.45;10.50;;;;;;;7.12;53.19;92691.09;6196962;23;20023;-93
2022/04/13 02:34:35;;;;;;;22.67;11.13;;;;;;;7.12;53.22;92694.50;6170296;23;20026;-93
2022/04/13 02:37:10;;;;;;;19.83;10.82;;;;;;;7.38;53.28;92730.94;6196592;23;20078;-93
2022/04/13 02:40:19;;;;;;;;;;;;;;;;;;;;;
2022/04/13 02:43:10;;;;;;;;;;;;;;;;;;;;;
2022/04/13 02:45:54;;;;;;;;;;;;;;;;;;;;;
2022/04/13 02:48:36;;;;;;;21.73;11.40;;;;;;;7.22;53.82;92704.13;6218448;23;20499;-93
2022/04/13 02:51:28;;;;;;;19.98;10.57;;;;;;;7.39;53.64;92732.53;6216503;23;20024;-93
2022/04/13 02:54:30;;;;;;;;;;;;;;;;;;;;;
2022/04/13 02:57:04;;;;;;;24.48;10.30;;;;;;;7.11;53.86;92698.13;6190522;23;20127;-92
2022/04/13 02:59:56;;;;;;;;;;;;;;;;;;;;;
2022/04/13 03:02:44;;;;;;;19.23;10.10;;;;;;;7.35;54.00;92749.72;6170369;23;20021;-92
2022/04/13 03:05:44;;;;;;;;;;;;;;;;;;;;;
2022/04/13 03:11:15;;;;;;;19.75;11.02;;;;;;;6.83;53.99;92684.56;6210919;23;20044;-93
2022/04/13 03:13:53;;;;;;;21.75;10.63;;;;;;;6.76;54.12;92671.00;6223624;23;20009;-93
2022/04/13 03:16:37;;;;;;;21.88;10.50;;;;;;;6.88;54.61;92694.97;6144722;23;20023;-94
2022/04/13 03:20:01;;;;;;;20.60;9.90;;;;;;;6.73;54.58;92675.94;6191886;23;20099;-94
2022/04/13 03:22:56;;;;;;;;;;;;;;;;;;;;;
2022/04/13 03:25:33;;;;;;;20.02;10.18;;;;;;;6.68;54.41;92674.09;6190685;23;20071;-93
2022/04/13 03:28:19;;;;;;;20.40;10.05;;;;;;;7.07;54.34;92731.72;6192257;23;20012;-93
2022/04/13 03:31:28;;;;;;;19.70;8.68;;;;;;;6.55;54.59;92659.78;6170348;23;20027;-94
2022/04/13 03:34:19;;;;;;;;;;;;;;;;;;;;;
2022/04/13 03:37:09;;;;;;;24.25;9.90;;;;;;;6.73;54.59;92697.53;6189499;23;20023;-93
2022/04/13 03:39:51;;;;;;;21.05;9.70;;;;;;;6.71;55.02;92688.41;6190072;23;20028;-93
2022/04/13 03:42:34;;;;;;;17.67;9.73;;;;;;;6.84;54.57;92714.72;6216540;23;20071;-94
2022/04/13 03:45:31;;;;;;;26.48;9.43;;;;;;;6.51;54.65;92663.13;6143766;23;20032;-93
2022/04/13 03:48:08;;;;;;;;;;;;;;;6.92;55.25;92736.09;6170434;23;20074;-93
2022/04/13 03:50:55;;;;;;;18.95;9.05;;;;;;;6.74;55.23;92709.50;6167184;23;19912;-93
2022/04/13 03:53:34;;;;;;;19.15;9.52;;;;;;;6.78;55.04;92715.78;6220586;23;20004;-93
2022/04/13 03:59:16;;;;;;;18.73;9.75;;;;;;;6.38;55.55;92667.78;6215249;23;20371;-94
2022/04/13 04:02:15;;;;;;;;;;;;;;;;;;;;;
2022/04/13 04:05:01;;;;;;;19.83;10.10;;;;;;;6.47;56.24;92694.88;6246598;23;20321;-92
2022/04/13 04:07:32;;;;;;;19.30;9.75;;;;;;;6.27;56.69;92671.41;6173416;23;20070;-93
2022/04/13 04:13:13;;;;;;;19.90;9.30;;;;;;;6.32;56.51;92675.81;6220986;23;20452;-93
2022/04/13 04:16:13;;;;;;;20.02;9.48;;;;;;;6.23;56.53;92670.34;6198565;23;20038;-93
2022/04/13 04:18:41;;;;;;;22.65;10.43;;;;;;;6.13;57.31;92662.50;6209815;22;20011;-94
2022/04/13 04:21:23;;;;;;;21.35;8.85;;;;;;;6.09;57.55;92656.25;6222134;23;20004;-93
2022/04/13 04:24:14;;;;;;;;;;;;;;;;;;;;;
2022/04/13 04:26:48;;;;;;;20.45;8.50;;;;;;;6.13;57.95;92678.09;6250315;22;19996;-93
2022/04/13 04:29:57;;;;;;;;;;;;;;;;;;;;;
2022/04/13 04:32:34;;;;;;;20.95;9.05;;;;;;;6.03;58.14;92666.63;6201794;23;20082;-93
2022/04/13 04:35:53;;;;;;;;;;;;;;;;;;;;;
2022/04/13 04:38:41;;;;;;;15.73;8.20;;;;;;;6.00;57.06;92667.13;6246982;23;20100;-94
2022/04/13 04:42:07;;;;;;;21.08;9.25;;;;;;;6.32;57.30;92726.00;6203515;23;20099;-93
2022/04/13 04:44:45;;;;;;;;;;;;;;;;;;;;;
2022/04/13 04:47:27;;;;;;;20.85;8.95;;;;;;;5.94;57.83;92675.91;6247205;23;20099;-88
2022/04/13 04:50:06;;;;;;;28.33;9.18;;;;;;;5.93;57.89;92670.97;6173330;23;20101;-89
2022/04/13 04:52:34;;;;;;;19.70;9.40;;;;;;;5.84;57.29;92660.25;6194188;23;20043;-87
2022/04/13 04:55:10;;;;;;;;;;;;;;;;;;;;;
2022/04/13 04:57:41;;;;;;;21.05;9.40;;;;;;;6.23;57.65;92720.50;6219824;23;20069;-87
2022/04/13 05:00:19;;;;;;;20.23;8.88;;;;;;;5.96;57.65;92686.06;6245591;23;20008;-88
2022/04/13 05:03:01;;;;;;;18.60;8.23;;;;;;;5.93;58.62;92674.34;6220266;23;20084;-87
2022/04/13 05:05:32;;;;;;;22.75;9.38;;;;;;;6.04;58.86;92691.56;6195583;23;20430;-87
2022/04/13 05:07:58;;;;;;;22.40;8.88;;;;;;;6.15;59.14;92699.44;6219895;23;20016;-87
2022/04/13 05:10:38;;;;;;;18.73;8.55;;;;;;;6.26;59.31;92714.03;6194907;23;20028;-88
2022/04/13 05:13:07;;;;;;;22.92;9.52;;;;;;;6.28;58.42;92709.34;6246128;23;20404;-88
2022/04/13 05:15:32;;;;;;;17.35;9.18;;;;;;;6.25;58.16;92700.22;6194173;23;20455;-87
2022/04/13 05:18:14;;;;;;;21.70;9.57;;;;;;;6.26;57.99;92695.84;6245418;23;20091;-87
2022/04/13 05:20:47;;;;;;;23.00;9.07;;;;;;;6.51;58.07;92726.34;6246132;23;20005;-88
2022/04/13 05:23:20;;;;;;;21.60;10.43;;;;;;;6.46;58.05;92724.53;6219417;23;20020;-87
2022/04/13 05:25:59;;;;;;;17.30;8.93;;;;;;;6.76;57.69;92754.28;6246058;23;20078;-87
2022/04/13 05:28:32;;;;;;;18.35;9.52;;;;;;;6.38;57.71;92701.59;6194279;23;20070;-88
2022/04/13 05:31:11;;;;;;;19.35;9.60;;;;;;;6.70;57.66;92734.47;6222462;23;20083;-87
2022/04/13 05:33:39;;;;;;;24.58;10.45;;;;;;;6.55;57.31;92709.22;6220406;23;20390;-87
2022/04/13 05:36:08;;;;;;;21.25;10.75;;;;;;;6.65;57.46;92721.47;6219906;23;20335;-87
2022/04/13 05:38:34;;;;;;;27.85;11.30;;;;;;;6.60;57.59;92708.44;6218607;23;20062;-86
2022/04/13 05:41:02;;;;;;;21.67;9.70;;;;;;;6.84;57.90;92737.38;6245375;23;20451;-88
2022/04/13 05:43:33;;;;;;;21.05;10.23;;;;;;;7.18;57.37;92774.16;6196959;23;20035;-86
2022/04/13 05:45:59;;;;;;;21.85;10.77;;;;;;;7.10;57.17;92753.84;6248657;23;20012;-87
2022/04/13 05:48:25;;;;;;;20.80;10.55;;;;;;;7.37;57.02;92778.88;6254779;23;20023;-87
2022/04/13 05:50:51;;;;;;;20.02;9.20;;;;;;;7.55;56.51;92780.19;6226626;23;20099;-86
2022/04/13 05:53:17;;;;;;;22.77;9.63;;;;;;;7.72;56.46;92781.50;6196201;23;20031;-87
2022/04/13 05:55:42;;;;;;;22.15;9.60;;;;;;;7.96;56.12;92780.19;6199248;23;20020;-86
2022/04/13 05:58:08;;;;;;;20.90;10.02;;;;;;;8.22;55.45;92786.16;6223640;23;20038;-86
2022/04/13 06:00:34;;;;;;;22.25;9.88;;;;;;;8.49;55.62;92784.03;6198853;23;20031;-87
2022/04/13 06:03:00;;;;;;;24.15;9.75;;;;;;;8.76;54.80;92782.91;6250568;23;20463;-90
2022/04/13 06:05:26;;;;;;;18.08;8.20;;;;;;;9.01;53.84;92762.97;6198539;23;20024;-87
2022/04/13 06:07:53;;;;;;;20.08;8.65;;;;;;;9.41;52.73;92782.06;6198160;23;20099;-88
2022/04/13 06:10:19;;;;;;;22.20;8.95;;;;;;;9.75;51.88;92782.09;6196526;23;20007;-87
2022/04/13 06:12:48;;;;;;;19.65;8.82;;;;;;;10.09;50.29;92792.53;6171928;23;20019;-87
2022/04/13 06:15:14;;;;;;;23.58;9.57;;;;;;;10.37;48.91;92784.97;6248563;23;20091;-87
2022/04/13 06:17:40;;;;;;;29.08;9.82;;;;;;;10.98;48.20;92800.03;6221874;23;20035;-87
2022/04/13 06:20:07;;;;;;;19.25;8.30;;;;;;;12.49;44.18;92795.75;6196426;23;20012;-86
2022/04/13 06:22:40;;;;;;;20.13;8.18;;;;;;;14.31;40.05;92777.47;6248354;23;20078;-87
2022/04/13 06:25:06;;;;;;;17.08;8.63;;;;;;;15.72;36.28;92798.75;6221865;23;20093;-88
2022/04/13 06:27:32;;;;;;;17.25;8.05;;;;;;;16.63;34.63;92783.72;6247987;23;20012;-89
2022/04/13 06:29:57;;;;;;;18.08;8.57;;;;;;;17.05;33.79;92794.47;6197033;23;20666;-88
2022/04/13 06:32:37;;;;;;;22.70;8.25;;;;;;;17.92;32.33;92770.09;6196832;23;20012;-88
2022/04/13 06:35:04;;;;;;;22.80;9.38;;;;;;;19.03;30.76;92794.31;6222953;23;20067;-90
2022/04/13 06:37:29;;;;;;;23.58;10.52;;;;;;;19.17;29.63;92794.75;6196561;23;20016;-87
2022/04/13 06:39:55;;;;;;;23.70;10.98;;;;;;;20.10;27.95;92800.13;6221493;23;20115;-89
2022/04/13 06:42:22;;;;;;;22.73;11.70;;;;;;;20.61;27.20;92794.31;6172106;23;20066;-88
2022/04/13 06:44:54;;;;;;;22.15;10.05;;;;;;;19.73;28.36;92797.59;6198428;23;20012;-88
2022/04/13 06:47:20;;;;;;;21.55;11.25;;;;;;;20.25;26.61;92797.91;6195962;23;20020;-88
2022/04/13 06:49:47;;;;;;;24.75;10.57;;;;;;;19.41;28.40;92798.47;6170738;23;20088;-89
2022/04/13 06:52:13;;;;;;;19.77;9.98;;;;;;;19.02;27.56;92750.28;6219933;23;20020;-88
2022/04/13 06:54:40;;;;;;;19.27;9.55;;;;;;;20.54;26.80;92778.91;6221807;23;20023;-88
2022/04/13 06:57:06;;;;;;;26.33;10.52;;;;;;;21.06;25.83;92797.72;6220863;23;20066;-87
2022/04/13 06:59:31;;;;;;;19.80;10.82;;;;;;;20.25;26.57;92801.31;6220431;23;20008;-87
2022/04/13 07:01:57;;;;;;;25.67;11.98;;;;;;;18.20;29.68;92806.66;6195278;23;20016;-88
2022/04/13 07:04:23;;;;;;;19.10;10.00;;;;;;;18.41;30.90;92807.41;6220463;23;20016;-87
2022/04/13 07:06:48;;;;;;;23.30;9.70;;;;;;;18.18;31.31;92777.84;6247975;23;20016;-88
2022/04/13 07:09:14;;;;;;;22.70;10.45;;;;;;;17.30;33.60;92815.81;6248537;23;20013;-88
2022/04/13 07:11:39;;;;;;;20.25;9.00;;;;;;;15.52;35.68;92821.97;6196208;23;20778;-89
2022/04/13 07:14:05;;;;;;;24.70;10.32;;;;;;;15.42;36.15;92803.78;6196243;23;20020;-87
2022/04/13 07:16:31;;;;;;;23.08;10.45;;;;;;;14.93;37.07;92808.34;6195969;23;20348;-89
2022/04/13 07:18:56;;;;;;;23.40;11.88;;;;;;;13.92;39.25;92821.03;6248396;23;20438;-87
2022/04/13 07:21:22;;;;;;;22.00;10.45;;;;;;;13.43;39.92;92812.88;6221557;23;20040;-86
2022/04/13 07:23:48;;;;;;;26.23;11.10;;;;;;;13.53;41.16;92825.84;6223025;23;20063;-88
2022/04/13 07:26:13;;;;;;;22.25;10.45;;;;;;;13.12;40.56;92805.59;6222738;23;20068;-88
2022/04/13 07:28:39;;;;;;;24.75;10.50;;;;;;;12.39;42.29;92811.69;6222092;23;20012;-87
2022/04/13 07:31:06;;;;;;;23.05;10.10;;;;;;;12.54;42.12;92827.19;6195482;23;20012;-87
2022/04/13 07:33:34;;;;;;;21.70;11.02;;;;;;;11.85;43.31;92819.84;6196145;23;20103;-87
2022/04/13 07:36:00;;;;;;;23.35;10.50;;;;;;;12.85;42.69;92829.25;6223891;23;20015;-88
2022/04/13 07:38:25;;;;;;;25.95;10.75;;;;;;;13.13;42.48;92832.66;6198066;23;20012;-87
2022/04/13 07:40:51;;;;;;;22.73;10.20;;;;;;;13.16;41.40;92831.31;6175933;23;20428;-88
2022/04/13 07:43:17;;;;;;;23.35;9.93;;;;;;;13.48;41.59;92833.03;6252783;23;20365;-87
2022/04/13 07:45:43;;;;;;;24.05;10.93;;;;;;;13.00;41.31;92828.97;6254718;23;20009;-87
2022/04/13 07:48:09;;;;;;;25.48;9.85;;;;;;;12.44;42.59;92830.75;6225829;23;20012;-87
2022/04/13 07:50:35;;;;;;;22.42;10.70;;;;;;;12.07;43.76;92816.66;6196434;23;20023;-86
2022/04/13 07:53:02;;;;;;;22.23;9.70;;;;;;;11.71;44.53;92832.13;6221307;23;20032;-88
2022/04/13 07:55:27;;;;;;;21.77;10.60;;;;;;;12.15;44.43;92849.31;6256960;23;20024;-91
2022/04/13 07:57:53;;;;;;;24.30;10.73;;;;;;;12.00;44.36;92846.94;6220789;22;20007;-90
2022/04/13 08:00:19;;;;;;;23.48;10.13;;;;;;;11.88;44.48;92829.78;6245476;22;20007;-88
2022/04/13 08:02:45;;;;;;;22.88;10.43;;;;;;;12.19;44.39;92844.28;6270535;23;20015;-87
2022/04/13 08:05:15;;;;;;;23.55;11.70;;;;;;;12.45;44.84;92819.19;6271571;23;20035;-88
2022/04/13 08:07:43;;;;;;;21.38;11.05;;;;;;;13.11;42.98;92840.84;6226421;23;20020;-87
2022/04/13 08:10:10;;;;;;;25.50;11.45;;;;;;;12.88;43.02;92824.19;6220047;23;20042;-88
2022/04/13 08:12:35;;;;;;;24.40;10.95;;;;;;;13.20;42.53;92830.41;6246832;23;20004;-87
2022/04/13 08:15:03;;;;;;;33.22;12.45;;;;;;;12.83;43.91;92847.16;6219472;23;20439;-87
2022/04/13 08:17:29;;;;;;;26.27;11.77;;;;;;;13.22;42.81;92833.53;6245915;23;20016;-87
2022/04/13 08:19:55;;;;;;;24.27;11.68;;;;;;;13.01;42.75;92838.38;6193624;23;20332;-87
2022/04/13 08:22:27;;;;;;;24.83;11.02;;;;;;;12.90;43.07;92818.63;6195244;23;20342;-88
2022/04/13 08:24:53;;;;;;;25.52;11.80;;;;;;;12.89;43.02;92824.97;6220231;23;20034;-87
2022/04/13 08:27:20;;;;;;;23.05;11.50;;;;;;;13.06;43.65;92851.44;6220121;23;20020;-86
2022/04/13 08:29:48;;;;;;;26.42;12.25;;;;;;;12.91;43.27;92833.34;6246697;23;20000;-88
2022/04/13 08:32:19;;;;;;;24.83;11.50;;;;;;;12.73;43.61;92829.72;6195626;23;20016;-89
2022/04/13 08:34:46;;;;;;;28.30;12.30;;;;;;;13.20;44.98;92848.81;6194455;23;20658;-88
2022/04/13 08:37:12;;;;;;;25.00;12.23;;;;;;;12.72;43.64;92843.91;6219474;23;20016;-88
2022/04/13 08:39:39;;;;;;;23.10;10.93;;;;;;;13.32;44.25;92848.34;6194955;23;20020;-87
2022/04/13 08:42:17;;;;;;;26.17;12.55;;;;;;;13.34;43.96;92848.84;6170638;23;20016;-88
2022/04/13 08:44:46;;;;;;;26.65;11.95;;;;;;;13.93;43.03;92849.69;6194413;23;20008;-88
2022/04/13 08:47:18;;;;;;;27.90;11.85;;;;;;;14.55;41.76;92835.88;6195205;23;20343;-88
2022/04/13 08:49:45;;;;;;;36.97;12.52;;;;;;;14.47;41.98;92838.44;6246942;23;20012;-89
2022/04/13 08:52:14;;;;;;;32.22;13.82;;;;;;;14.13;42.21;92850.31;6195414;23;20034;-88
2022/04/13 08:54:51;;;;;;;30.77;12.45;;;;;;;14.04;43.42;92841.56;6220189;23;20448;-87
2022/04/13 08:57:20;;;;;;;31.83;13.70;;;;;;;13.75;42.15;92850.63;6219753;23;20008;-88
2022/04/13 08:59:49;;;;;;;35.15;13.15;;;;;;;13.22;43.71;92836.16;6220402;23;20032;-89
2022/04/13 09:02:27;;;;;;;33.25;12.80;;;;;;;13.99;43.61;92849.59;6219556;23;20008;-89
2022/04/13 09:04:59;;;;;;;29.85;12.90;;;;;;;13.92;42.16;92829.72;6195381;23;20012;-90
2022/04/13 09:07:30;;;;;;;30.15;12.98;;;;;;;14.14;41.61;92852.66;6246327;23;20087;-87
2022/04/13 09:10:00;;;;;;;29.38;12.93;;;;;;;13.82;42.85;92844.94;6245651;23;20008;-89
2022/04/13 09:12:30;;;;;;;31.13;13.40;;;;;;;14.02;43.53;92843.72;6220033;23;20023;-90
2022/04/13 09:15:03;;;;;;;25.80;11.75;;;;;;;13.40;43.75;92854.78;6197078;23;20020;-90
2022/04/13 09:17:29;;;;;;;33.85;13.32;;;;;;;13.30;42.55;92837.34;6195211;23;20008;-89
2022/04/13 09:20:00;;;;;;;29.48;13.10;;;;;;;13.58;42.96;92845.19;6195137;23;20087;-90
2022/04/13 09:22:26;;;;;;;32.63;13.48;;;;;;;13.79;43.56;92861.34;6220637;23;20091;-89
2022/04/13 09:24:52;;;;;;;32.40;12.23;;;;;;;13.40;44.68;92850.28;6219111;23;20012;-90
2022/04/13 09:27:20;;;;;;;28.95;12.90;;;;;;;13.42;42.98;92835.00;6220094;23;20012;-89
2022/04/13 09:29:47;;;;;;;33.75;13.75;;;;;;;12.99;44.64;92855.53;6247283;23;20012;-89
2022/04/13 09:32:14;;;;;;;30.33;13.68;;;;;;;13.72;42.99;92857.25;6246392;23;20004;-91
2022/04/13 09:34:40;;;;;;;29.30;13.40;;;;;;;13.38;42.79;92834.03;6219535;23;20012;-89
2022/04/13 09:37:06;;;;;;;30.52;13.70;;;;;;;13.81;42.86;92848.66;6245832;23;20008;-90
2022/04/13 09:39:33;;;;;;;33.38;14.85;;;;;;;13.91;41.77;92858.94;6246417;23;20012;-89
2022/04/13 09:42:03;;;;;;;36.78;14.07;;;;;;;14.07;42.19;92846.22;6219771;23;20008;-89
2022/04/13 09:44:32;;;;;;;30.10;12.40;;;;;;;14.28;40.99;92847.31;6219467;23;20018;-90
2022/04/13 09:47:12;;;;;;;34.10;13.60;;;;;;;14.52;40.80;92838.31;6247406;23;20376;-90
2022/04/13 09:49:53;;;;;;;34.58;14.15;;;;;;;15.28;39.49;92829.53;6247180;23;20016;-91
2022/04/13 09:52:54;;;;;;;30.40;12.10;;;;;;;15.30;39.17;92840.53;6219055;23;20013;-91
2022/04/13 09:55:39;;;;;;;;;;;;;;;;;;;;;
2022/04/13 09:58:17;;;;;;;29.60;12.68;;;;;;;14.84;40.00;92802.22;6220282;23;19915;-91
2022/04/13 10:01:10;;;;;;;30.65;13.00;;;;;;;14.75;38.72;92818.03;6220171;23;20422;-90
2022/04/13 10:03:55;;;;;;;29.20;13.77;;;;;;;14.83;39.12;92811.22;6197495;23;20008;-91
2022/04/13 10:09:35;;;;;;;27.50;12.88;;;;;;;15.44;37.51;92812.16;6246267;23;20015;-92
2022/04/13 10:12:17;;;;;;;32.08;12.93;;;;;;;15.29;38.25;92794.13;6196800;23;20060;-91
2022/04/13 10:15:08;;;;;;;25.08;10.75;;;;;;;14.41;38.97;92814.09;6231999;23;20043;-90
2022/04/13 10:17:44;;;;;;;29.50;12.48;;;;;;;14.70;38.88;92818.13;6200167;23;20016;-91
2022/04/13 10:20:17;;;;;;;37.20;12.65;;;;;;;15.15;38.87;92786.34;6257582;23;20012;-91
2022/04/13 10:23:01;;;;;;;31.75;12.77;;;;;;;15.35;38.40;92775.22;6227277;23;20011;-91
2022/04/13 10:25:29;;;;;;;35.50;13.27;;;;;;;15.53;38.49;92834.06;6197912;23;20027;-89
2022/04/13 10:28:20;;;;;;;27.83;11.95;;;;;;;15.09;36.90;92817.38;6222262;23;20016;-90
2022/04/13 10:31:14;;;;;;;31.10;13.50;;;;;;;14.64;38.71;92811.47;6202372;23;20083;-89
2022/04/13 10:33:57;;;;;;;39.05;13.25;;;;;;;15.28;38.28;92814.47;6179949;23;20031;-90
2022/04/13 10:36:35;;;;;;;26.55;11.70;;;;;;;14.73;38.81;92760.34;6197181;23;20015;-91
2022/04/13 10:39:04;;;;;;;31.00;13.15;;;;;;;14.65;37.99;92799.81;6222771;23;20016;-91
2022/04/13 10:41:30;;;;;;;31.50;12.88;;;;;;;15.14;38.12;92817.22;6195825;23;20004;-90
2022/04/13 11:32:16;;;;;;;23.90;11.25;;;;;;;16.04;35.96;92800.13;6177756;23;20363;-77
2022/04/13 11:34:45;;;;;;;28.20;11.73;;;;;;;16.19;36.06;92788.31;6182414;23;20021;-77
2022/04/13 11:37:12;;;;;;;29.58;11.68;;;;;;;15.66;35.73;92797.31;6183332;23;20013;-77
2022/04/13 11:39:57;;;;;;;28.95;12.82;;;;;;;16.00;35.14;92797.34;6183275;23;20007;-77
2022/04/13 11:42:24;;;;;;;29.83;12.90;;;;;;;15.98;35.69;92798.72;6182227;23;20396;-76
2022/04/13 11:45:05;;;;;;;30.05;12.90;;;;;;;16.19;34.63;92798.91;6182898;23;20448;-77
2022/04/13 11:47:43;;;;;;;31.85;11.45;;;;;;;16.19;33.85;92798.91;6156012;23;20080;-77
2022/04/13 11:50:16;;;;;;;33.90;13.77;;;;;;;15.70;35.26;92799.03;6182386;23;20024;-77
2022/04/13 11:52:54;;;;;;;31.85;13.05;;;;;;;15.84;34.35;92777.78;6155657;23;20013;-77
2022/04/13 11:55:21;;;;;;;39.35;12.82;;;;;;;16.26;34.80;92798.38;6182704;23;20013;-77
2022/04/13 11:57:59;;;;;;;32.75;12.85;;;;;;;16.74;34.77;92786.78;6157853;23;20004;-76
2022/04/13 12:00:44;;;;;;;36.95;12.32;;;;;;;16.52;35.07;92777.97;6184560;23;20013;-77
2022/04/13 12:03:12;;;;;;;35.70;13.23;;;;;;;15.65;35.33;92791.28;6185072;23;20457;-77
2022/04/13 12:05:44;;;;;;;31.15;12.68;;;;;;;16.29;35.00;92785.34;6185513;23;20417;-77
2022/04/13 12:08:14;;;;;;;31.45;12.90;;;;;;;16.48;34.69;92777.06;6186369;23;20059;-77
2022/04/13 12:10:57;;;;;;;29.92;12.75;;;;;;;16.62;34.64;92782.94;6186707;23;20015;-77
2022/04/13 12:13:22;;;;;;;27.70;11.30;;;;;;;16.30;34.75;92773.72;6184741;23;20016;-77
2022/04/13 12:15:50;;;;;;;35.38;14.25;;;;;;;16.59;35.49;92782.78;6158043;23;20021;-77
2022/04/13 12:18:17;;;;;;;31.23;13.13;;;;;;;16.71;34.06;92782.91;6184402;23;20192;-76
2022/04/13 12:20:43;;;;;;;32.97;12.60;;;;;;;17.17;34.73;92776.03;6184248;23;20389;-77
2022/04/13 12:23:27;;;;;;;33.10;12.63;;;;;;;17.07;34.79;92779.06;6184601;23;19997;-78
2022/04/13 12:25:55;;;;;;;35.17;14.50;;;;;;;17.13;33.64;92791.00;6157309;23;20083;-76
2022/04/13 12:28:23;;;;;;;31.15;12.68;;;;;;;17.10;34.13;92778.41;6183996;23;20464;-77
2022/04/13 12:30:57;;;;;;;24.50;10.45;;;;;;;16.74;34.32;92774.34;6184311;23;20013;-76
2022/04/13 12:33:24;;;;;;;38.00;13.77;;;;;;;17.15;33.59;92770.28;6158428;23;20323;-77
2022/04/13 12:36:00;;;;;;;30.83;12.85;;;;;;;16.97;34.51;92764.31;6186055;23;20013;-76
2022/04/13 12:38:27;;;;;;;35.22;13.05;;;;;;;16.14;34.73;92767.34;6157851;23;20040;-76
2022/04/13 12:41:13;;;;;;;39.47;14.00;;;;;;;16.53;35.09;92765.56;6184553;23;20017;-75
2022/04/13 12:43:56;;;;;;;39.45;14.20;;;;;;;16.61;34.54;92764.75;6132947;23;20091;-76
2022/04/13 12:46:23;;;;;;;38.35;13.30;;;;;;;16.57;36.05;92761.19;6184062;23;20041;-76
2022/04/13 12:48:59;;;;;;;34.50;13.95;;;;;;;16.43;34.70;92751.56;6183745;23;20020;-76
2022/04/13 12:51:37;;;;;;;38.75;14.75;;;;;;;16.88;34.48;92760.94;6157770;23;20488;-76
2022/04/13 12:54:07;;;;;;;31.85;12.30;;;;;;;16.95;35.13;92739.28;6184249;23;20013;-76
2022/04/13 12:56:36;;;;;;;40.85;14.45;;;;;;;17.35;34.84;92747.63;6183889;23;20433;-76
2022/04/13 12:59:02;;;;;;;46.60;15.48;;;;;;;17.65;34.21;92744.91;6155386;23;20013;-76
2022/04/13 13:01:38;;;;;;;39.00;13.95;;;;;;;17.59;33.73;92725.81;6183402;23;20091;-76
2022/04/13 13:04:06;;;;;;;43.65;14.68;;;;;;;17.76;33.75;92745.31;6183516;23;20017;-76
2022/04/13 13:06:33;;;;;;;38.45;14.32;;;;;;;17.74;33.36;92742.97;6183469;23;20055;-76
2022/04/13 13:09:06;;;;;;;44.83;13.82;;;;;;;17.31;34.79;92736.13;6132588;23;20048;-75
2022/04/13 13:11:37;;;;;;;56.70;15.80;;;;;;;17.31;35.29;92741.41;6182443;23;20091;-76
2022/04/13 13:14:09;;;;;;;42.95;10.07;;;;;;;17.11;34.62;92744.81;6182367;23;20020;-76
2022/04/13 13:16:43;;;;;;;40.53;13.85;;;;;;;17.43;35.12;92732.78;6182911;23;20013;-76
2022/04/13 13:19:13;;;;;;;38.22;14.18;;;;;;;17.48;35.00;92738.66;6156792;23;20391;-78
2022/04/13 13:22:11;;;;;;;36.92;14.30;;;;;;;17.93;34.79;92737.25;6156902;23;20070;-76
2022/04/13 13:24:59;;;;;;;40.22;14.57;;;;;;;18.04;34.24;92741.03;6183324;23;20013;-74
2022/04/13 13:27:37;;;;;;;33.72;13.73;;;;;;;17.25;34.55;92735.53;6157086;23;20440;-75
2022/04/13 13:30:09;;;;;;;37.58;13.98;;;;;;;17.19;34.93;92738.69;6182845;23;20013;-76
2022/04/13 13:32:37;;;;;;;44.83;14.75;;;;;;;17.48;35.53;92714.84;6182602;23;20353;-76
2022/04/13 13:35:09;;;;;;;40.50;14.73;;;;;;;17.92;34.71;92727.75;6182023;23;20000;-77
2022/04/13 13:37:41;;;;;;;36.40;14.13;;;;;;;17.78;34.25;92727.22;6182425;23;20012;-77
2022/04/13 13:40:29;;;;;;;38.35;14.50;;;;;;;17.40;35.01;92736.06;6183053;23;20345;-77
2022/04/13 13:42:55;;;;;;;46.13;15.02;;;;;;;17.33;35.49;92722.56;6182771;23;20009;-77
2022/04/13 13:45:21;;;;;;;42.67;15.50;;;;;;;17.17;35.34;92731.06;6183054;23;20016;-76